Time;durP1;ratioP1;P1;durP2;ratioP2;P2;SDS_P1;SDS_P2;PMS_P1;PMS_P2;Temp;Humidity;BMP_temperature;BMP_pressure;BME280_temperature;BME280_humidity;BME280_pressure;Samples;Min_cycle;Max_cycle;Signal;HPM_P1;HPM_P2
2021/05/26 00:00:09;;;;;;;2.85;0.60;;;;;;;;;;5071397;28;20098;-67
2021/05/26 00:02:37;;;;;;;2.10;0.65;;;;;;;;;;5071685;28;20468;-68
2021/05/26 00:05:05;;;;;;;1.83;0.82;;;;;;;;;;5071664;28;20396;-67
2021/05/26 00:07:31;;;;;;;1.60;0.75;;;;;;;;;;5071525;28;20048;-67
2021/05/26 00:09:57;;;;;;;1.48;0.60;;;;;;;;;;5071742;28;20527;-67
2021/05/26 00:12:23;;;;;;;3.20;0.90;;;;;;;;;;5071296;28;20052;-68
2021/05/26 00:14:49;;;;;;;1.77;0.60;;;;;;;;;;5071774;28;20526;-68
2021/05/26 00:17:15;;;;;;;1.67;1.00;;;;;;;;;;5072221;28;20131;-68
2021/05/26 00:19:43;;;;;;;1.80;0.80;;;;;;;;;;5075303;28;20087;-69
2021/05/26 00:22:10;;;;;;;1.80;0.70;;;;;;;;;;5075478;28;20504;-69
2021/05/26 00:24:36;;;;;;;1.27;0.60;;;;;;;;;;5075809;28;20048;-68
2021/05/26 00:27:02;;;;;;;2.22;0.88;;;;;;;;;;5075022;28;20049;-69
2021/05/26 00:29:28;;;;;;;2.90;1.10;;;;;;;;;;5075515;28;20451;-69
2021/05/26 00:31:54;;;;;;;3.15;0.77;;;;;;;;;;5075575;28;20052;-67
2021/05/26 00:34:20;;;;;;;3.28;0.80;;;;;;;;;;5075341;28;20519;-68
2021/05/26 00:36:47;;;;;;;1.42;0.65;;;;;;;;;;5074807;28;20049;-69
2021/05/26 00:39:13;;;;;;;2.17;1.15;;;;;;;;;;5074590;28;21260;-69
2021/05/26 00:41:39;;;;;;;2.83;0.80;;;;;;;;;;5074978;28;20044;-68
2021/05/26 00:44:06;;;;;;;1.33;0.70;;;;;;;;;;5075091;28;20041;-68
2021/05/26 00:46:39;;;;;;;1.83;0.65;;;;;;;;;;5074885;28;20052;-69
2021/05/26 00:49:05;;;;;;;3.55;1.15;;;;;;;;;;5074826;28;20055;-68
2021/05/26 00:51:31;;;;;;;2.05;0.80;;;;;;;;;;5074835;28;20056;-68
2021/05/26 00:53:58;;;;;;;2.63;1.20;;;;;;;;;;5074907;28;20083;-68
2021/05/26 00:56:24;;;;;;;2.05;0.80;;;;;;;;;;5075138;28;20365;-68
2021/05/26 00:58:50;;;;;;;2.08;1.05;;;;;;;;;;5075077;28;20102;-68
2021/05/26 01:01:17;;;;;;;2.90;0.70;;;;;;;;;;5074394;28;20103;-68
2021/05/26 01:03:43;;;;;;;2.00;0.68;;;;;;;;;;5073979;28;20057;-67
2021/05/26 01:06:09;;;;;;;3.08;0.80;;;;;;;;;;5074382;28;20106;-67
2021/05/26 01:08:35;;;;;;;5.15;1.38;;;;;;;;;;5074301;28;20093;-67
2021/05/26 01:11:03;;;;;;;3.20;0.88;;;;;;;;;;5074251;28;20546;-67
2021/05/26 01:13:30;;;;;;;0.60;0.50;;;;;;;;;;5074573;28;20044;-67
2021/05/26 01:15:56;;;;;;;1.27;0.63;;;;;;;;;;5074174;28;20045;-67
2021/05/26 01:18:27;;;;;;;4.07;1.00;;;;;;;;;;5074447;28;20052;-67
2021/05/26 01:20:55;;;;;;;2.05;0.77;;;;;;;;;;5074228;28;20052;-67
2021/05/26 01:23:22;;;;;;;1.70;0.52;;;;;;;;;;5074468;28;20040;-67
2021/05/26 01:25:49;;;;;;;2.15;0.70;;;;;;;;;;5074009;28;20495;-67
2021/05/26 01:28:15;;;;;;;1.52;0.65;;;;;;;;;;5074065;28;20052;-67
2021/05/26 01:30:41;;;;;;;3.03;0.90;;;;;;;;;;5073702;28;20106;-67
2021/05/26 01:33:07;;;;;;;3.40;1.02;;;;;;;;;;5073517;28;20047;-67
2021/05/26 01:35:34;;;;;;;1.50;0.70;;;;;;;;;;5073454;28;20120;-67
2021/05/26 01:38:00;;;;;;;1.83;0.55;;;;;;;;;;5072066;28;20102;-67
2021/05/26 01:40:26;;;;;;;1.77;0.80;;;;;;;;;;5073359;28;20044;-67
2021/05/26 01:42:52;;;;;;;2.40;0.60;;;;;;;;;;5074094;28;20044;-67
2021/05/26 01:45:18;;;;;;;2.15;0.55;;;;;;;;;;5073885;28;20416;-67
2021/05/26 01:47:45;;;;;;;1.85;0.68;;;;;;;;;;5074286;28;20396;-67
2021/05/26 01:50:20;;;;;;;2.75;0.80;;;;;;;;;;5073915;28;20460;-67
2021/05/26 01:52:48;;;;;;;1.85;0.68;;;;;;;;;;5073385;28;20128;-67
2021/05/26 01:55:15;;;;;;;1.63;0.65;;;;;;;;;;5073619;28;20582;-67
2021/05/26 01:57:43;;;;;;;2.08;0.82;;;;;;;;;;5072418;28;20131;-68
2021/05/26 02:00:11;;;;;;;2.78;0.68;;;;;;;;;;5073025;28;20523;-68
2021/05/26 02:02:37;;;;;;;1.67;0.70;;;;;;;;;;5064818;28;20048;-67
2021/05/26 02:05:03;;;;;;;2.70;0.77;;;;;;;;;;5073662;28;20053;-68
2021/05/26 02:07:29;;;;;;;3.08;0.80;;;;;;;;;;5073372;28;20405;-68
2021/05/26 02:09:55;;;;;;;3.80;0.93;;;;;;;;;;5073597;28;20127;-68
2021/05/26 02:12:21;;;;;;;2.97;0.70;;;;;;;;;;5072910;28;20526;-68
2021/05/26 02:14:49;;;;;;;4.93;0.93;;;;;;;;;;5072910;28;20044;-68
2021/05/26 02:17:15;;;;;;;5.03;2.08;;;;;;;;;;5073356;28;20049;-68
2021/05/26 02:19:41;;;;;;;3.95;0.70;;;;;;;;;;5073706;28;20053;-67
2021/05/26 02:22:07;;;;;;;1.65;0.60;;;;;;;;;;5072945;28;20118;-67
2021/05/26 02:24:33;;;;;;;2.20;0.70;;;;;;;;;;5073212;28;20044;-68
2021/05/26 02:26:59;;;;;;;4.93;0.88;;;;;;;;;;5072799;28;20476;-69
2021/05/26 02:29:25;;;;;;;4.40;1.02;;;;;;;;;;5073124;28;20114;-69
2021/05/26 02:31:52;;;;;;;3.15;0.90;;;;;;;;;;5072435;28;20127;-67
2021/05/26 02:34:18;;;;;;;2.78;0.82;;;;;;;;;;5072777;28;20049;-68
2021/05/26 02:36:44;;;;;;;1.55;0.82;;;;;;;;;;5072465;28;20049;-68
2021/05/26 02:39:11;;;;;;;2.97;0.80;;;;;;;;;;5072564;28;20053;-68
2021/05/26 02:41:37;;;;;;;1.90;0.80;;;;;;;;;;5072395;28;20056;-68
2021/05/26 02:44:04;;;;;;;2.10;0.45;;;;;;;;;;5072318;28;20687;-68
2021/05/26 02:46:30;;;;;;;2.30;0.80;;;;;;;;;;5072347;28;20508;-67
2021/05/26 02:48:57;;;;;;;2.63;1.27;;;;;;;;;;5072542;28;20094;-68
2021/05/26 02:51:23;;;;;;;3.33;0.70;;;;;;;;;;5072500;28;20487;-68
2021/05/26 02:53:49;;;;;;;4.65;0.80;;;;;;;;;;5072458;28;20110;-68
2021/05/26 02:56:15;;;;;;;4.88;0.88;;;;;;;;;;5072498;28;20059;-68
2021/05/26 02:58:43;;;;;;;2.00;1.00;;;;;;;;;;5072855;28;20048;-68
2021/05/26 03:01:09;;;;;;;3.42;0.88;;;;;;;;;;5071695;28;20052;-68
2021/05/26 03:03:35;;;;;;;2.10;0.90;;;;;;;;;;5072140;28;20444;-68
2021/05/26 03:06:02;;;;;;;1.70;0.90;;;;;;;;;;5072371;28;20496;-68
2021/05/26 03:08:28;;;;;;;1.73;0.77;;;;;;;;;;5072091;28;20044;-69
2021/05/26 03:10:56;;;;;;;4.03;0.85;;;;;;;;;;5072652;28;20048;-67
2021/05/26 03:13:23;;;;;;;3.00;0.70;;;;;;;;;;5071864;28;20048;-67
2021/05/26 03:15:49;;;;;;;2.28;1.00;;;;;;;;;;5072099;28;20078;-67
2021/05/26 03:18:15;;;;;;;2.28;0.50;;;;;;;;;;5072334;28;20074;-67
2021/05/26 03:20:41;;;;;;;1.13;0.70;;;;;;;;;;5072252;28;20485;-67
2021/05/26 03:23:08;;;;;;;3.40;0.95;;;;;;;;;;5072177;28;20044;-67
2021/05/26 03:25:34;;;;;;;3.47;1.20;;;;;;;;;;5072330;28;20056;-67
2021/05/26 03:28:00;;;;;;;3.20;1.00;;;;;;;;;;5072127;28;20052;-67
2021/05/26 03:30:27;;;;;;;6.68;0.82;;;;;;;;;;5071915;28;20058;-67
2021/05/26 03:32:53;;;;;;;1.00;0.50;;;;;;;;;;5072106;28;20092;-67
2021/05/26 03:35:19;;;;;;;1.73;0.75;;;;;;;;;;5071967;28;20063;-67
2021/05/26 03:37:46;;;;;;;5.68;1.10;;;;;;;;;;5071833;28;20056;-67
2021/05/26 03:40:15;;;;;;;1.63;0.95;;;;;;;;;;5071940;28;20113;-67
2021/05/26 03:42:41;;;;;;;1.50;0.60;;;;;;;;;;5071947;28;20052;-68
2021/05/26 03:45:11;;;;;;;2.28;0.85;;;;;;;;;;5071907;28;20122;-67
2021/05/26 03:47:37;;;;;;;2.30;1.10;;;;;;;;;;5070493;28;20114;-67
2021/05/26 03:50:04;;;;;;;5.80;1.17;;;;;;;;;;5071727;28;20094;-67
2021/05/26 03:52:30;;;;;;;3.55;0.80;;;;;;;;;;5072947;28;20130;-67
2021/05/26 03:54:56;;;;;;;1.33;0.65;;;;;;;;;;5076444;28;20060;-67
2021/05/26 03:57:23;;;;;;;1.05;0.60;;;;;;;;;;5076009;28;20048;-67
2021/05/26 03:59:49;;;;;;;1.77;0.70;;;;;;;;;;5076151;28;20049;-67
2021/05/26 04:02:15;;;;;;;2.80;0.77;;;;;;;;;;5074378;28;20405;-67
2021/05/26 04:04:41;;;;;;;2.20;0.70;;;;;;;;;;5075703;28;20052;-67
2021/05/26 04:07:07;;;;;;;3.78;0.88;;;;;;;;;;5075442;28;20044;-67
2021/05/26 04:09:33;;;;;;;2.55;0.70;;;;;;;;;;5075397;28;20393;-67
2021/05/26 04:11:59;;;;;;;4.20;0.88;;;;;;;;;;5075357;28;20412;-67
2021/05/26 04:14:26;;;;;;;3.20;0.80;;;;;;;;;;5074975;28;20037;-67
2021/05/26 04:16:52;;;;;;;3.92;0.70;;;;;;;;;;5075319;28;20048;-67
2021/05/26 04:19:18;;;;;;;1.65;0.52;;;;;;;;;;5075179;28;20417;-67
2021/05/26 04:21:44;;;;;;;1.90;0.80;;;;;;;;;;5075581;28;20063;-67
2021/05/26 04:24:10;;;;;;;3.05;0.82;;;;;;;;;;5075622;28;20075;-67
2021/05/26 04:26:36;;;;;;;2.03;0.68;;;;;;;;;;5075411;28;20048;-67
2021/05/26 04:29:03;;;;;;;2.70;0.80;;;;;;;;;;5074752;28;20404;-67
2021/05/26 04:31:30;;;;;;;1.58;0.60;;;;;;;;;;5075304;28;20049;-67
2021/05/26 04:33:56;;;;;;;2.60;0.70;;;;;;;;;;5075258;28;20044;-67
2021/05/26 04:36:22;;;;;;;1.48;0.60;;;;;;;;;;5074931;28;20047;-67
2021/05/26 04:38:48;;;;;;;2.83;1.10;;;;;;;;;;5075174;28;20462;-67
2021/05/26 04:41:14;;;;;;;5.10;0.88;;;;;;;;;;5075071;28;20545;-67
2021/05/26 04:43:40;;;;;;;2.25;0.40;;;;;;;;;;5075216;28;20420;-67
2021/05/26 04:46:06;;;;;;;3.28;0.75;;;;;;;;;;5074751;28;20054;-67
2021/05/26 04:48:33;;;;;;;2.65;0.93;;;;;;;;;;5074576;28;20045;-67
2021/05/26 04:50:58;;;;;;;6.03;1.08;;;;;;;;;;5074234;28;20052;-67
2021/05/26 04:53:25;;;;;;;3.75;1.33;;;;;;;;;;5074960;28;20052;-67
2021/05/26 04:55:51;;;;;;;1.98;0.80;;;;;;;;;;5074486;28;20040;-67
2021/05/26 04:58:16;;;;;;;2.47;0.70;;;;;;;;;;5075138;28;20044;-67
2021/05/26 05:00:42;;;;;;;2.40;0.75;;;;;;;;;;5074542;28;20504;-67
2021/05/26 05:03:08;;;;;;;4.20;0.80;;;;;;;;;;5074395;28;20446;-67
2021/05/26 05:05:35;;;;;;;1.73;0.70;;;;;;;;;;5074386;28;20048;-67
2021/05/26 05:08:02;;;;;;;2.25;0.88;;;;;;;;;;5074047;28;20048;-67
2021/05/26 05:10:28;;;;;;;1.70;0.68;;;;;;;;;;5073029;28;20052;-67
2021/05/26 05:12:54;;;;;;;1.25;0.82;;;;;;;;;;5073219;28;20036;-67
2021/05/26 05:15:20;;;;;;;3.35;1.15;;;;;;;;;;5073048;28;20420;-67
2021/05/26 05:17:47;;;;;;;5.65;0.82;;;;;;;;;;5073663;28;20059;-66
2021/05/26 05:20:14;;;;;;;4.05;0.90;;;;;;;;;;5073412;28;20398;-67
2021/05/26 05:22:41;;;;;;;5.72;1.00;;;;;;;;;;5073978;28;20098;-67
2021/05/26 05:25:09;;;;;;;3.67;0.75;;;;;;;;;;5074389;28;20056;-67
2021/05/26 05:27:35;;;;;;;1.77;0.85;;;;;;;;;;5072779;28;20041;-67
2021/05/26 05:30:01;;;;;;;2.03;0.70;;;;;;;;;;5074216;28;20074;-67
2021/05/26 05:32:27;;;;;;;1.95;0.45;;;;;;;;;;5073983;28;20044;-67
2021/05/26 05:34:53;;;;;;;5.28;1.05;;;;;;;;;;5074316;28;20044;-67
2021/05/26 05:37:19;;;;;;;2.92;0.80;;;;;;;;;;5074000;28;20048;-68
2021/05/26 05:39:46;;;;;;;1.15;0.60;;;;;;;;;;5073710;28;20522;-67
2021/05/26 05:42:12;;;;;;;2.00;0.60;;;;;;;;;;5073830;28;20054;-67
2021/05/26 05:44:38;;;;;;;1.10;0.60;;;;;;;;;;5074168;28;20057;-67
2021/05/26 05:47:04;;;;;;;3.00;0.77;;;;;;;;;;5073785;28;20239;-67
2021/05/26 05:49:30;;;;;;;1.92;0.73;;;;;;;;;;5073935;28;20045;-67
2021/05/26 05:51:56;;;;;;;1.98;0.70;;;;;;;;;;5073357;28;20123;-67
2021/05/26 05:54:22;;;;;;;1.80;0.70;;;;;;;;;;5073393;28;20114;-67
2021/05/26 05:56:49;;;;;;;2.70;0.80;;;;;;;;;;5072837;28;20052;-67
2021/05/26 05:59:15;;;;;;;1.27;0.60;;;;;;;;;;5072917;28;20052;-67
2021/05/26 06:01:41;;;;;;;2.15;0.98;;;;;;;;;;5072920;28;20101;-67
2021/05/26 06:04:07;;;;;;;2.40;0.70;;;;;;;;;;5073367;28;20044;-67
2021/05/26 06:06:33;;;;;;;5.18;0.70;;;;;;;;;;5072856;28;20412;-67
2021/05/26 06:08:59;;;;;;;1.80;0.52;;;;;;;;;;5073352;28;20451;-67
2021/05/26 06:11:25;;;;;;;2.78;0.75;;;;;;;;;;5072341;28;20044;-67
2021/05/26 06:13:53;;;;;;;2.95;0.80;;;;;;;;;;5072193;28;20040;-67
2021/05/26 06:16:19;;;;;;;1.38;0.65;;;;;;;;;;5069803;28;20102;-67
2021/05/26 06:18:45;;;;;;;1.90;0.57;;;;;;;;;;5072720;28;20060;-67
2021/05/26 06:21:11;;;;;;;3.35;1.20;;;;;;;;;;5072751;28;20044;-67
2021/05/26 06:23:37;;;;;;;8.02;2.33;;;;;;;;;;5072424;28;20055;-67
2021/05/26 06:26:03;;;;;;;3.35;1.17;;;;;;;;;;5057056;28;20128;-67
2021/05/26 06:28:29;;;;;;;4.03;2.25;;;;;;;;;;5053216;28;20061;-67
2021/05/26 06:30:57;;;;;;;4.60;1.48;;;;;;;;;;5060870;28;20481;-67
2021/05/26 06:33:23;;;;;;;4.63;1.65;;;;;;;;;;5072388;28;20051;-67
2021/05/26 06:35:50;;;;;;;3.03;1.10;;;;;;;;;;5072789;28;20511;-67
2021/05/26 06:38:16;;;;;;;3.75;1.55;;;;;;;;;;5072700;28;20057;-67
2021/05/26 06:40:42;;;;;;;3.28;1.08;;;;;;;;;;5072339;28;20059;-67
2021/05/26 06:43:08;;;;;;;3.65;1.35;;;;;;;;;;5072915;28;20500;-67
2021/05/26 06:45:34;;;;;;;6.43;1.48;;;;;;;;;;5072348;28;20140;-67
2021/05/26 06:48:01;;;;;;;2.85;1.00;;;;;;;;;;5072716;28;20517;-67
2021/05/26 06:50:27;;;;;;;3.10;1.10;;;;;;;;;;5072305;28;20055;-67
2021/05/26 06:52:53;;;;;;;4.82;1.40;;;;;;;;;;5073190;28;20056;-68
2021/05/26 06:55:19;;;;;;;7.55;1.52;;;;;;;;;;5072314;28;20409;-67
2021/05/26 06:57:46;;;;;;;1.85;0.95;;;;;;;;;;5072400;28;20052;-67
2021/05/26 07:00:13;;;;;;;3.28;1.30;;;;;;;;;;5080074;28;20135;-67
2021/05/26 07:02:39;;;;;;;2.60;1.00;;;;;;;;;;5092441;28;20453;-67
2021/05/26 07:05:08;;;;;;;6.45;1.50;;;;;;;;;;5092577;28;20138;-67
2021/05/26 07:07:34;;;;;;;2.35;1.00;;;;;;;;;;5092525;28;20052;-67
2021/05/26 07:10:00;;;;;;;3.13;0.95;;;;;;;;;;5092302;28;20446;-67
2021/05/26 07:12:26;;;;;;;2.72;1.20;;;;;;;;;;5092185;28;20052;-67
2021/05/26 07:14:52;;;;;;;6.55;1.48;;;;;;;;;;5069228;28;20053;-67
2021/05/26 07:17:18;;;;;;;2.88;1.15;;;;;;;;;;5052148;28;20045;-66
2021/05/26 07:19:45;;;;;;;4.70;1.20;;;;;;;;;;5064427;28;20496;-66
2021/05/26 07:22:11;;;;;;;4.10;1.27;;;;;;;;;;5072345;28;20044;-66
2021/05/26 07:24:37;;;;;;;1.23;0.77;;;;;;;;;;5072154;28;20448;-66
2021/05/26 07:27:04;;;;;;;4.95;1.42;;;;;;;;;;5059328;28;20064;-66
2021/05/26 07:29:30;;;;;;;3.85;1.10;;;;;;;;;;5073364;28;20435;-66
2021/05/26 07:31:56;;;;;;;4.47;1.20;;;;;;;;;;5089168;28;20052;-67
2021/05/26 07:34:22;;;;;;;2.35;0.77;;;;;;;;;;5092024;28;20510;-68
2021/05/26 07:36:48;;;;;;;3.20;0.77;;;;;;;;;;5091928;28;20488;-68
2021/05/26 07:39:14;;;;;;;2.13;0.60;;;;;;;;;;5092133;28;20052;-66
2021/05/26 07:41:40;;;;;;;3.28;1.10;;;;;;;;;;5079133;28;20059;-66
2021/05/26 07:44:06;;;;;;;1.80;1.17;;;;;;;;;;5072092;28;20473;-66
2021/05/26 07:46:32;;;;;;;2.63;0.60;;;;;;;;;;5071738;28;20492;-66
2021/05/26 07:48:58;;;;;;;2.70;0.82;;;;;;;;;;5071719;28;20472;-67
2021/05/26 07:51:29;;;;;;;2.08;0.55;;;;;;;;;;5071501;28;20405;-68
2021/05/26 07:53:55;;;;;;;3.53;0.80;;;;;;;;;;5071670;28;20108;-68
2021/05/26 07:56:22;;;;;;;2.80;0.80;;;;;;;;;;5071197;28;20045;-68
2021/05/26 07:58:48;;;;;;;2.78;0.80;;;;;;;;;;5057951;28;20063;-68
2021/05/26 08:01:14;;;;;;;2.97;0.82;;;;;;;;;;5051675;28;20057;-68
2021/05/26 08:03:40;;;;;;;2.42;0.85;;;;;;;;;;5051610;28;20574;-68
2021/05/26 08:06:06;;;;;;;2.60;1.00;;;;;;;;;;5051784;28;20429;-66
2021/05/26 08:08:34;;;;;;;3.10;0.73;;;;;;;;;;5055810;28;20056;-66
2021/05/26 08:11:00;;;;;;;2.17;0.70;;;;;;;;;;5071130;28;20078;-66
2021/05/26 08:13:27;;;;;;;2.30;0.70;;;;;;;;;;5071478;28;20048;-66
2021/05/26 08:15:53;;;;;;;2.28;0.70;;;;;;;;;;5071884;28;20492;-66
2021/05/26 08:18:19;;;;;;;3.33;0.90;;;;;;;;;;5071489;28;20056;-68
2021/05/26 08:20:47;;;;;;;4.13;0.70;;;;;;;;;;5071249;28;20053;-66
2021/05/26 08:23:13;;;;;;;3.60;1.15;;;;;;;;;;5071725;28;20048;-68
2021/05/26 08:25:39;;;;;;;1.73;0.85;;;;;;;;;;5071653;28;20068;-68
2021/05/26 08:28:05;;;;;;;4.53;0.70;;;;;;;;;;5071388;28;20494;-68
2021/05/26 08:30:32;;;;;;;2.13;0.60;;;;;;;;;;5071314;28;20051;-66
2021/05/26 08:32:58;;;;;;;2.97;1.17;;;;;;;;;;5085305;28;20058;-68
2021/05/26 08:35:24;;;;;;;2.53;1.00;;;;;;;;;;5091875;28;20524;-67
2021/05/26 08:37:50;;;;;;;1.27;0.52;;;;;;;;;;5091720;28;20101;-67
2021/05/26 08:40:17;;;;;;;2.58;0.90;;;;;;;;;;5095116;28;20533;-67
2021/05/26 08:42:43;;;;;;;1.42;0.80;;;;;;;;;;5095358;28;20052;-67
2021/05/26 08:45:10;;;;;;;5.88;1.60;;;;;;;;;;5095393;28;20071;-67
2021/05/26 08:47:41;;;;;;;5.03;1.52;;;;;;;;;;5095320;28;20464;-67
2021/05/26 08:50:08;;;;;;;3.90;1.42;;;;;;;;;;5094919;28;20048;-66
2021/05/26 08:52:35;;;;;;;2.55;1.05;;;;;;;;;;5094915;28;20047;-66
2021/05/26 08:55:01;;;;;;;3.40;0.90;;;;;;;;;;5067940;28;20443;-66
2021/05/26 08:57:27;;;;;;;3.30;1.10;;;;;;;;;;5055813;28;20055;-66
2021/05/26 08:59:53;;;;;;;3.67;1.30;;;;;;;;;;5071380;28;20421;-66
2021/05/26 09:02:19;;;;;;;5.22;1.40;;;;;;;;;;5074312;28;20131;-68
2021/05/26 09:04:46;;;;;;;4.38;1.35;;;;;;;;;;5074826;28;20048;-68
2021/05/26 09:07:14;;;;;;;3.35;1.17;;;;;;;;;;5074591;28;20525;-67
2021/05/26 09:09:51;;;;;;;3.97;1.17;;;;;;;;;;5074634;28;20056;-67
2021/05/26 09:12:25;;;;;;;3.58;1.15;;;;;;;;;;5074666;28;20485;-67
2021/05/26 09:14:51;;;;;;;4.15;1.15;;;;;;;;;;5074366;28;20535;-68
2021/05/26 09:17:17;;;;;;;2.60;0.98;;;;;;;;;;5072980;28;20102;-67
2021/05/26 09:19:43;;;;;;;3.67;1.40;;;;;;;;;;5073063;28;20977;-66
2021/05/26 09:22:11;;;;;;;2.75;1.30;;;;;;;;;;5073850;28;20447;-68
2021/05/26 09:24:37;;;;;;;2.65;1.00;;;;;;;;;;5074266;28;20072;-67
2021/05/26 09:27:05;;;;;;;2.38;0.90;;;;;;;;;;5073439;28;20052;-68
2021/05/26 09:29:32;;;;;;;7.22;1.17;;;;;;;;;;5073746;28;20076;-65
2021/05/26 09:32:19;;;;;;;4.30;1.20;;;;;;;;;;5074242;28;20061;-66
2021/05/26 09:34:47;;;;;;;3.60;0.98;;;;;;;;;;5073376;28;20063;-68
2021/05/26 09:37:15;;;;;;;4.03;1.25;;;;;;;;;;5074039;28;20057;-68
2021/05/26 09:39:55;;;;;;;3.83;1.10;;;;;;;;;;5072048;28;20101;-68
2021/05/26 09:42:33;;;;;;;3.63;1.58;;;;;;;;;;5064214;28;20053;-67
2021/05/26 09:45:14;;;;;;;5.85;1.30;;;;;;;;;;5064898;28;20045;-66
2021/05/26 09:47:43;;;;;;;5.35;1.60;;;;;;;;;;5053350;28;20064;-67
2021/05/26 09:50:20;;;;;;;3.58;1.13;;;;;;;;;;5053492;28;20059;-67
2021/05/26 09:52:59;;;;;;;5.88;1.30;;;;;;;;;;5053445;28;20048;-69
2021/05/26 09:55:28;;;;;;;3.28;1.13;;;;;;;;;;5061846;28;20052;-66
2021/05/26 09:57:54;;;;;;;4.90;1.00;;;;;;;;;;5072946;28;20443;-66
2021/05/26 10:00:21;;;;;;;2.42;1.05;;;;;;;;;;5072915;28;20575;-66
2021/05/26 10:02:47;;;;;;;5.70;1.30;;;;;;;;;;5072856;28;20048;-65
2021/05/26 10:05:16;;;;;;;3.63;0.98;;;;;;;;;;5073057;28;20461;-67
2021/05/26 10:07:42;;;;;;;2.95;1.05;;;;;;;;;;5073253;28;20071;-66
2021/05/26 10:10:12;;;;;;;2.78;1.00;;;;;;;;;;5073173;28;20052;-68
2021/05/26 10:12:39;;;;;;;6.10;1.38;;;;;;;;;;5073479;28;20053;-66
2021/05/26 10:15:07;;;;;;;5.47;1.52;;;;;;;;;;5072407;28;20052;-66
2021/05/26 10:17:35;;;;;;;2.95;1.20;;;;;;;;;;5072824;28;20136;-66
2021/05/26 10:20:03;;;;;;;3.17;1.00;;;;;;;;;;5073036;28;20087;-68
2021/05/26 10:22:30;;;;;;;4.47;1.60;;;;;;;;;;5073051;28;20131;-68
2021/05/26 10:24:56;;;;;;;2.53;1.15;;;;;;;;;;5072560;28;20443;-68
2021/05/26 10:27:34;;;;;;;5.57;1.23;;;;;;;;;;5073041;28;20052;-68
2021/05/26 10:30:02;;;;;;;4.65;1.55;;;;;;;;;;5073074;28;20076;-66
2021/05/26 10:32:31;;;;;;;2.65;1.30;;;;;;;;;;5072712;28;20055;-66
2021/05/26 10:35:06;;;;;;;4.72;1.20;;;;;;;;;;5072816;28;20048;-66
2021/05/26 10:37:35;;;;;;;2.53;1.30;;;;;;;;;;5053323;28;20108;-66
2021/05/26 10:40:03;;;;;;;5.90;1.20;;;;;;;;;;5072372;28;20052;-66
2021/05/26 10:42:30;;;;;;;7.28;1.10;;;;;;;;;;5073249;28;20052;-66
2021/05/26 10:44:58;;;;;;;4.40;1.40;;;;;;;;;;5072624;28;20102;-67
2021/05/26 10:47:43;;;;;;;4.20;1.30;;;;;;;;;;5073206;28;20052;-66
2021/05/26 10:50:14;;;;;;;5.03;1.20;;;;;;;;;;5073269;28;20105;-66
2021/05/26 10:53:14;;;;;;;3.92;1.25;;;;;;;;;;5072871;28;20139;-68
2021/05/26 10:55:42;;;;;;;6.07;1.67;;;;;;;;;;5052624;28;20071;-68
2021/05/26 10:58:13;;;;;;;2.55;1.02;;;;;;;;;;5052811;28;20540;-68
2021/05/26 11:00:41;;;;;;;21.40;7.55;;;;;;;;;;5052269;28;20052;-68
2021/05/26 11:03:41;;;;;;;13.95;4.03;;;;;;;;;;5052776;28;20182;-67
2021/05/26 11:06:37;;;;;;;10.10;3.28;;;;;;;;;;5052818;28;20382;-69
2021/05/26 11:09:06;;;;;;;7.38;2.63;;;;;;;;;;5052963;28;20056;-67
2021/05/26 11:11:49;;;;;;;9.48;2.53;;;;;;;;;;5052405;28;20053;-67
2021/05/26 11:14:34;;;;;;;4.97;1.80;;;;;;;;;;5052708;28;20513;-66
2021/05/26 11:17:40;;;;;;;7.53;1.77;;;;;;;;;;5052345;28;20075;-67
2021/05/26 11:20:14;;;;;;;4.75;1.67;;;;;;;;;;5052427;28;20088;-67
2021/05/26 11:22:40;;;;;;;5.75;1.30;;;;;;;;;;5065541;28;20049;-68
2021/05/26 11:25:09;;;;;;;5.00;1.27;;;;;;;;;;5072009;28;20094;-66
2021/05/26 11:27:35;;;;;;;5.88;1.35;;;;;;;;;;5072377;28;20477;-67
2021/05/26 11:30:03;;;;;;;5.07;1.10;;;;;;;;;;5072361;28;20052;-67
2021/05/26 11:32:31;;;;;;;4.20;1.40;;;;;;;;;;5071939;28;20531;-68
2021/05/26 11:35:01;;;;;;;5.53;1.45;;;;;;;;;;5071356;28;20045;-68
2021/05/26 11:37:28;;;;;;;6.25;1.98;;;;;;;;;;5072347;28;20481;-67
2021/05/26 11:39:55;;;;;;;4.75;1.60;;;;;;;;;;5072069;28;20632;-68
2021/05/26 11:42:23;;;;;;;6.53;1.60;;;;;;;;;;5071929;28;20087;-67
2021/05/26 11:44:57;;;;;;;4.25;1.40;;;;;;;;;;5071725;28;20504;-66
2021/05/26 11:47:34;;;;;;;7.07;2.03;;;;;;;;;;5071923;28;20052;-67
2021/05/26 11:50:01;;;;;;;7.88;2.28;;;;;;;;;;5072169;28;20044;-67
2021/05/26 11:52:28;;;;;;;6.30;1.98;;;;;;;;;;5072087;28;20048;-66
2021/05/26 11:54:55;;;;;;;5.05;1.63;;;;;;;;;;5071631;28;20142;-66
2021/05/26 11:57:22;;;;;;;6.75;1.90;;;;;;;;;;5071961;28;20049;-66
2021/05/26 11:59:51;;;;;;;6.68;2.00;;;;;;;;;;5072027;28;20051;-67
2021/05/26 12:02:17;;;;;;;3.90;1.67;;;;;;;;;;5071547;28;20056;-67
2021/05/26 12:04:44;;;;;;;6.75;2.00;;;;;;;;;;5057717;28;20041;-68
2021/05/26 12:07:10;;;;;;;7.20;2.65;;;;;;;;;;5051621;28;20049;-65
2021/05/26 12:09:36;;;;;;;5.70;2.20;;;;;;;;;;5052065;28;20113;-65
2021/05/26 12:12:14;;;;;;;4.55;2.00;;;;;;;;;;5059224;28;20484;-67
2021/05/26 12:14:40;;;;;;;5.70;1.58;;;;;;;;;;5054627;28;20045;-68
2021/05/26 12:17:06;;;;;;;5.93;1.85;;;;;;;;;;5055815;28;20053;-68
2021/05/26 12:19:33;;;;;;;6.07;2.22;;;;;;;;;;5064682;28;20048;-68
2021/05/26 12:22:08;;;;;;;11.00;2.15;;;;;;;;;;5074190;28;20170;-68
2021/05/26 12:24:52;;;;;;;4.72;2.17;;;;;;;;;;5074484;28;20045;-68
2021/05/26 12:27:42;;;;;;;8.77;2.03;;;;;;;;;;5065547;28;20489;-67
2021/05/26 12:30:20;;;;;;;4.82;1.60;;;;;;;;;;5060787;28;20095;-68
2021/05/26 12:32:47;;;;;;;7.55;2.78;;;;;;;;;;5075370;28;20045;-68
2021/05/26 12:35:18;;;;;;;7.85;2.00;;;;;;;;;;5064692;28;20105;-68
2021/05/26 12:37:47;;;;;;;7.70;2.05;;;;;;;;;;5084303;28;20059;-68
2021/05/26 12:40:27;;;;;;;7.72;2.45;;;;;;;;;;5079189;28;20049;-67
2021/05/26 12:42:54;;;;;;;6.28;1.90;;;;;;;;;;5075660;28;20461;-68
2021/05/26 12:45:22;;;;;;;5.75;2.33;;;;;;;;;;5075128;28;20048;-68
2021/05/26 12:47:49;;;;;;;6.60;2.38;;;;;;;;;;5074765;28;20090;-66
2021/05/26 12:50:16;;;;;;;6.90;2.40;;;;;;;;;;5075376;28;20054;-66
2021/05/26 12:52:43;;;;;;;6.18;2.25;;;;;;;;;;5074900;28;20041;-68
2021/05/26 12:55:12;;;;;;;9.65;2.33;;;;;;;;;;5074472;28;20459;-69
2021/05/26 12:57:41;;;;;;;6.25;2.08;;;;;;;;;;5075069;28;20044;-66
2021/05/26 13:00:09;;;;;;;8.35;2.08;;;;;;;;;;5074926;28;20049;-66
2021/05/26 13:02:37;;;;;;;7.10;2.15;;;;;;;;;;5074747;28;20052;-66
2021/05/26 13:05:05;;;;;;;5.07;2.03;;;;;;;;;;5074241;28;20049;-66
2021/05/26 13:07:33;;;;;;;10.38;3.03;;;;;;;;;;5074713;28;20044;-66
2021/05/26 13:10:15;;;;;;;4.70;2.55;;;;;;;;;;5074869;28;20139;-66
2021/05/26 13:12:42;;;;;;;4.25;1.95;;;;;;;;;;5075271;28;20093;-66
2021/05/26 13:15:25;;;;;;;7.10;2.80;;;;;;;;;;5074629;28;20071;-66
2021/05/26 13:17:51;;;;;;;4.15;1.63;;;;;;;;;;5074853;28;20084;-66
2021/05/26 13:20:21;;;;;;;6.32;2.33;;;;;;;;;;5074500;28;20060;-66
2021/05/26 13:22:47;;;;;;;8.23;2.60;;;;;;;;;;5074766;28;20481;-66
2021/05/26 13:25:13;;;;;;;7.28;2.35;;;;;;;;;;5074026;28;20044;-67
2021/05/26 13:27:42;;;;;;;5.70;2.08;;;;;;;;;;5074171;28;20063;-67
2021/05/26 13:30:09;;;;;;;6.78;2.85;;;;;;;;;;5074582;28;20054;-66
2021/05/26 13:32:35;;;;;;;6.00;2.55;;;;;;;;;;5074096;28;20049;-66
2021/05/26 13:35:01;;;;;;;5.70;2.25;;;;;;;;;;5073487;28;20516;-67
2021/05/26 13:37:27;;;;;;;8.25;2.28;;;;;;;;;;5074279;28;20049;-66
2021/05/26 13:39:53;;;;;;;8.38;2.83;;;;;;;;;;5074030;28;20051;-66
2021/05/26 13:42:19;;;;;;;5.80;2.38;;;;;;;;;;5074024;28;20048;-67
2021/05/26 13:44:46;;;;;;;8.05;3.10;;;;;;;;;;5074093;28;20402;-67
2021/05/26 13:47:12;;;;;;;9.80;2.92;;;;;;;;;;5074261;28;20052;-67
2021/05/26 13:49:37;;;;;;;11.00;3.15;;;;;;;;;;5071419;28;20131;-67
2021/05/26 13:52:04;;;;;;;8.30;2.83;;;;;;;;;;5073772;28;20484;-67
2021/05/26 13:54:30;;;;;;;9.13;2.28;;;;;;;;;;5066004;28;20041;-67
2021/05/26 13:56:57;;;;;;;8.43;3.45;;;;;;;;;;5053624;28;20140;-67
2021/05/26 13:59:23;;;;;;;6.55;2.40;;;;;;;;;;5054041;28;20045;-67
2021/05/26 14:01:50;;;;;;;5.57;2.50;;;;;;;;;;5054565;28;20064;-68
2021/05/26 14:04:17;;;;;;;8.38;3.15;;;;;;;;;;5073432;28;20044;-67
2021/05/26 14:06:43;;;;;;;11.02;3.47;;;;;;;;;;5072946;28;20057;-67
2021/05/26 14:09:09;;;;;;;10.15;2.90;;;;;;;;;;5086106;28;20730;-68
2021/05/26 14:11:35;;;;;;;7.15;2.70;;;;;;;;;;5072916;28;20045;-68
2021/05/26 14:14:01;;;;;;;9.68;4.40;;;;;;;;;;5072803;28;20049;-68
2021/05/26 14:16:27;;;;;;;6.25;3.20;;;;;;;;;;5072783;28;20048;-68
2021/05/26 14:18:54;;;;;;;10.18;3.83;;;;;;;;;;5073420;28;20063;-68
2021/05/26 14:21:21;;;;;;;11.43;4.53;;;;;;;;;;5073004;28;20106;-70
2021/05/26 14:23:48;;;;;;;11.98;5.03;;;;;;;;;;5053642;28;20090;-68
2021/05/26 14:26:14;;;;;;;14.13;5.63;;;;;;;;;;5053292;28;20111;-68
2021/05/26 14:28:40;;;;;;;15.55;8.35;;;;;;;;;;5053240;28;20049;-68
2021/05/26 14:31:06;;;;;;;15.20;8.15;;;;;;;;;;5053244;28;20060;-68
2021/05/26 14:33:33;;;;;;;12.23;6.85;;;;;;;;;;5067255;28;20052;-68
2021/05/26 14:36:00;;;;;;;10.77;6.13;;;;;;;;;;5072106;28;20439;-68
2021/05/26 14:38:34;;;;;;;15.98;7.57;;;;;;;;;;5072549;28;20055;-68
2021/05/26 14:41:01;;;;;;;18.33;9.90;;;;;;;;;;5073567;28;20156;-68
2021/05/26 14:43:27;;;;;;;10.45;6.10;;;;;;;;;;5081827;28;20054;-68
2021/05/26 14:45:55;;;;;;;11.52;3.92;;;;;;;;;;5090584;28;20048;-68